createdAt,value
2019-01-16T07:19:16.561Z,20.88
2019-01-16T07:21:41.249Z,21.05
2019-01-16T07:24:01.970Z,21.56
2019-01-16T07:26:28.180Z,22.09
2019-01-16T07:28:45.301Z,22.49
2019-01-16T07:31:11.232Z,22.64
2019-01-16T07:33:35.601Z,22.76
2019-01-16T07:36:09.936Z,22.81
2019-01-16T07:38:38.719Z,22.90
2019-01-16T07:41:23.486Z,22.95
2019-01-16T07:43:38.295Z,22.99
2019-01-16T07:46:02.413Z,22.96
2019-01-16T07:48:38.116Z,22.91
2019-01-16T07:51:10.715Z,22.95
2019-01-16T07:53:39.492Z,22.94
2019-01-16T07:56:05.010Z,22.91
2019-01-16T07:58:26.683Z,22.83
2019-01-16T08:00:55.571Z,22.77
2019-01-16T08:03:21.885Z,22.87
2019-01-16T08:05:46.191Z,22.97
2019-01-16T08:08:15.267Z,23.13
2019-01-16T08:10:54.507Z,23.30
2019-01-16T08:13:19.295Z,23.44
2019-01-16T08:15:45.318Z,23.58
2019-01-16T08:18:11.242Z,23.69
2019-01-16T08:20:39.006Z,23.76
2019-01-16T08:23:07.502Z,23.86
2019-01-16T08:25:27.588Z,23.80
2019-01-16T08:27:52.368Z,23.70
2019-01-16T08:30:31.089Z,23.61
2019-01-16T08:33:03.893Z,23.49
2019-01-16T08:35:28.339Z,23.41
2019-01-16T08:38:03.501Z,23.33
2019-01-16T08:40:32.401Z,23.30
2019-01-16T08:43:07.837Z,23.18
2019-01-16T08:45:45.846Z,23.13
2019-01-16T08:48:04.009Z,23.08
2019-01-16T08:50:32.687Z,22.99
2019-01-16T08:52:55.976Z,22.94
2019-01-16T08:55:20.196Z,22.92
2019-01-16T08:57:38.143Z,22.87
2019-01-16T09:00:19.431Z,22.80
2019-01-16T09:02:44.164Z,22.83
2019-01-16T09:05:32.248Z,22.68
2019-01-16T09:08:16.635Z,23.06
2019-01-16T09:10:43.024Z,23.26
2019-01-16T09:13:38.499Z,23.37
2019-01-16T09:16:16.655Z,23.45
2019-01-16T09:18:44.087Z,23.63
2019-01-16T09:21:25.638Z,23.78
2019-01-16T09:24:03.670Z,23.84
2019-01-16T09:26:31.796Z,23.93
2019-01-16T09:29:06.944Z,24.08
2019-01-16T09:31:33.371Z,24.01
2019-01-16T09:34:08.376Z,23.88
2019-01-16T09:36:49.140Z,23.79
2019-01-16T09:39:29.840Z,23.68
2019-01-16T09:41:48.967Z,23.55
2019-01-16T09:44:30.388Z,23.48
2019-01-16T09:47:02.347Z,23.37
2019-01-16T09:49:28.289Z,23.31
2019-01-16T09:51:52.688Z,23.21
2019-01-16T09:54:17.612Z,23.18
2019-01-16T09:56:51.004Z,23.09
2019-01-16T09:59:20.356Z,23.01
2019-01-16T10:01:58.466Z,22.93
2019-01-16T10:04:34.013Z,22.91
2019-01-16T10:07:05.569Z,22.85
2019-01-16T10:09:29.729Z,22.80
2019-01-16T10:11:54.942Z,22.80
2019-01-16T10:14:29.670Z,22.77
2019-01-16T10:17:12.521Z,22.70
2019-01-16T10:19:41.491Z,22.72
2019-01-16T10:22:07.719Z,22.79
2019-01-16T10:24:33.490Z,23.00
2019-01-16T10:26:58.027Z,23.20
2019-01-16T10:29:36.188Z,23.34
2019-01-16T10:32:01.033Z,23.45
2019-01-16T10:34:35.762Z,23.56
2019-01-16T10:37:00.884Z,23.72
2019-01-16T10:39:30.166Z,23.79
2019-01-16T10:41:54.755Z,23.89
2019-01-16T10:44:29.693Z,23.83
2019-01-16T10:46:46.292Z,23.75
2019-01-16T10:49:15.186Z,23.61
2019-01-16T10:51:40.392Z,23.53
2019-01-16T10:53:56.173Z,23.44
2019-01-16T10:56:27.818Z,23.36
2019-01-16T10:59:02.989Z,23.30
2019-01-16T11:01:27.983Z,23.19
2019-01-16T11:03:53.615Z,23.15
2019-01-16T11:06:23.742Z,23.05
2019-01-16T11:08:51.270Z,22.96
2019-01-16T11:11:24.013Z,22.93
2019-01-16T11:13:56.489Z,22.87
2019-01-16T11:16:38.676Z,22.84
2019-01-16T11:19:21.361Z,22.80
2019-01-16T11:21:51.494Z,22.73
2019-01-16T11:24:26.997Z,22.68
2019-01-16T11:26:54.311Z,22.75
2019-01-16T11:29:44.855Z,22.85
2019-01-16T11:32:23.097Z,23.05
2019-01-16T11:35:02.994Z,23.20
2019-01-16T11:37:28.944Z,23.38
2019-01-16T11:39:53.453Z,23.49
2019-01-16T11:42:23.102Z,23.63
2019-01-16T11:45:07.329Z,23.70
2019-01-16T11:47:36.868Z,23.78
2019-01-16T11:50:08.866Z,23.89
2019-01-16T11:55:19.417Z,24.06
2019-01-16T11:57:59.035Z,24.13
2019-01-16T12:00:40.360Z,24.14
2019-01-16T12:03:09.567Z,24.04
2019-01-16T12:05:29.959Z,23.86
2019-01-16T12:07:54.554Z,23.73
2019-01-16T12:10:20.815Z,23.69
2019-01-16T12:12:52.638Z,23.69
2019-01-16T12:15:35.031Z,23.63
2019-01-16T12:17:59.841Z,23.58
2019-01-16T12:20:32.187Z,23.53
2019-01-16T12:22:52.057Z,23.48
2019-01-16T12:25:28.530Z,23.45
2019-01-16T12:28:07.302Z,23.40
2019-01-16T12:30:49.918Z,23.31
2019-01-16T12:33:09.235Z,23.26
2019-01-16T12:35:50.167Z,23.25
2019-01-16T12:38:24.316Z,23.24
2019-01-16T12:40:57.129Z,23.42
2019-01-16T12:43:24.522Z,23.56
2019-01-16T12:46:03.080Z,23.70
2019-01-16T12:48:23.791Z,23.79
2019-01-16T12:50:50.609Z,23.93
2019-01-16T12:53:25.036Z,24.04
2019-01-16T12:56:03.160Z,24.15
2019-01-16T12:58:49.561Z,24.26
2019-01-16T13:01:39.107Z,24.31
2019-01-16T13:04:12.059Z,24.40
2019-01-16T13:06:53.296Z,24.50
2019-01-16T13:09:18.235Z,24.61
2019-01-16T13:11:49.888Z,24.71
2019-01-16T13:14:15.082Z,24.82
2019-01-16T13:16:53.304Z,24.87
2019-01-16T13:19:25.583Z,24.98
2019-01-16T13:21:51.262Z,25.08
2019-01-16T13:24:20.078Z,25.18
2019-01-16T13:26:45.395Z,25.24
2019-01-16T13:29:14.363Z,25.24
2019-01-16T13:31:38.769Z,25.16
2019-01-16T13:34:15.707Z,24.97
2019-01-16T13:36:40.366Z,24.84
2019-01-16T13:39:19.279Z,24.69
2019-01-16T13:41:48.573Z,24.59
2019-01-16T13:46:58.244Z,24.64
2019-01-16T13:49:33.200Z,24.81
2019-01-16T13:52:05.727Z,24.98
2019-01-16T13:54:32.363Z,25.14
2019-01-16T13:57:17.668Z,25.19
2019-01-16T13:59:52.482Z,25.40
2019-01-16T14:02:15.659Z,25.46
2019-01-16T14:04:45.654Z,25.48
2019-01-16T14:07:25.114Z,25.41
2019-01-16T14:09:50.157Z,25.23
2019-01-16T14:12:33.397Z,25.23
2019-01-16T14:15:05.501Z,25.18
2019-01-16T14:17:37.651Z,25.07
2019-01-16T14:20:08.168Z,24.90
2019-01-16T14:25:07.976Z,24.70
2019-01-16T14:27:26.269Z,24.63
2019-01-16T14:30:09.017Z,24.63
2019-01-16T14:32:42.330Z,24.67
2019-01-16T14:35:22.694Z,24.73
2019-01-16T14:37:55.301Z,24.88
2019-01-16T14:40:35.269Z,24.91
2019-01-16T14:43:01.568Z,24.93
2019-01-16T14:45:39.344Z,25.00
2019-01-16T14:48:14.503Z,25.11
2019-01-16T14:50:34.813Z,25.19
2019-01-16T14:52:58.865Z,25.33
2019-01-16T14:55:30.914Z,25.28
2019-01-16T14:58:04.759Z,25.24
2019-01-16T15:03:29.522Z,25.04
2019-01-16T15:06:00.259Z,24.96
2019-01-16T15:08:50.503Z,24.87
2019-01-16T15:11:07.623Z,24.77
2019-01-16T15:13:41.305Z,24.73
2019-01-16T15:16:02.905Z,24.72
2019-01-16T15:18:30.877Z,24.63
2019-01-16T15:21:16.867Z,24.56
2019-01-16T15:23:51.794Z,24.49
2019-01-16T15:26:23.454Z,24.46
2019-01-16T15:28:52.520Z,24.54
2019-01-16T15:31:21.851Z,24.74
2019-01-16T15:33:46.554Z,24.85
2019-01-16T15:36:21.874Z,24.96
2019-01-16T15:39:05.227Z,25.12
2019-01-16T15:41:31.116Z,25.22
2019-01-16T15:44:10.038Z,25.19
2019-01-16T15:46:38.651Z,25.17
2019-01-16T15:49:21.240Z,25.10
2019-01-16T15:52:01.657Z,25.08
2019-01-16T15:54:47.755Z,25.09
2019-01-16T15:57:14.719Z,25.04
2019-01-16T15:59:47.840Z,25.07
2019-01-16T16:05:15.258Z,24.86
2019-01-16T16:07:48.617Z,24.80
2019-01-16T16:10:20.090Z,24.75
2019-01-16T16:12:48.410Z,24.70
2019-01-16T16:18:03.709Z,24.37
2019-01-16T16:20:30.597Z,24.43
2019-01-16T16:23:20.265Z,24.37
2019-01-16T16:25:44.789Z,24.50
2019-01-16T16:28:16.990Z,24.66
2019-01-16T16:30:48.928Z,24.88
2019-01-16T16:33:23.640Z,25.03
2019-01-16T16:35:59.736Z,25.05
2019-01-16T16:38:28.019Z,25.18
2019-01-16T16:40:57.113Z,25.17
2019-01-16T16:43:27.235Z,25.19
2019-01-16T16:46:04.420Z,25.15
2019-01-16T16:48:39.351Z,25.17
2019-01-16T16:51:24.411Z,25.20
2019-01-16T16:53:50.867Z,25.07
2019-01-16T16:56:23.317Z,25.00
2019-01-16T17:01:40.418Z,24.89
2019-01-16T17:04:11.536Z,24.89
2019-01-16T17:06:32.629Z,24.88
2019-01-16T17:08:56.751Z,24.83
2019-01-16T17:11:22.620Z,24.86
2019-01-16T17:13:49.121Z,24.94
2019-01-16T17:16:22.041Z,24.91
2019-01-16T17:18:44.060Z,25.02
2019-01-16T17:21:16.341Z,25.07
2019-01-16T17:23:41.084Z,25.10
2019-01-16T17:26:28.375Z,25.10
2019-01-16T17:28:53.358Z,25.02
2019-01-16T17:31:20.024Z,25.10
2019-01-16T17:34:05.403Z,25.09
2019-01-16T17:36:40.064Z,25.09
2019-01-16T17:39:24.337Z,25.09
2019-01-16T17:41:57.259Z,25.03
2019-01-16T17:44:35.284Z,25.09
2019-01-16T17:47:03.831Z,25.08
2019-01-16T17:49:27.119Z,25.21
2019-01-16T17:51:59.791Z,25.48
2019-01-16T17:54:31.189Z,25.66
2019-01-16T17:56:57.556Z,25.82
2019-01-16T17:59:32.036Z,25.97
2019-01-16T18:02:02.720Z,26.19
2019-01-16T18:04:23.249Z,26.17
2019-01-16T18:06:50.029Z,26.22
2019-01-16T18:09:29.998Z,26.22
2019-01-16T18:11:59.226Z,26.05
2019-01-16T18:14:29.140Z,25.83
2019-01-16T18:17:06.177Z,25.79
2019-01-16T18:19:31.342Z,25.74
2019-01-16T18:22:27.271Z,25.73
2019-01-16T18:24:51.230Z,25.61
2019-01-16T18:27:18.988Z,25.58
2019-01-16T18:29:49.241Z,25.60
2019-01-16T18:32:31.706Z,25.61
2019-01-16T18:34:56.186Z,25.58
2019-01-16T18:37:13.598Z,25.61
2019-01-16T18:40:12.950Z,25.57
2019-01-16T18:43:04.780Z,25.55
2019-01-16T18:45:53.645Z,25.54
2019-01-16T18:48:30.685Z,25.55
2019-01-16T18:51:14.618Z,25.48
2019-01-16T18:54:02.131Z,25.52
2019-01-16T18:57:00.268Z,25.46
2019-01-16T18:59:34.154Z,25.50
2019-01-16T19:02:21.949Z,25.45
2019-01-16T19:05:05.774Z,25.43
2019-01-16T19:07:30.079Z,25.59
2019-01-16T19:10:10.933Z,25.79
2019-01-16T19:15:40.001Z,26.14
2019-01-16T19:18:07.450Z,26.36
2019-01-16T19:20:37.892Z,26.53
2019-01-16T19:23:24.209Z,26.60
2019-01-16T19:26:10.191Z,26.63
2019-01-16T19:28:50.099Z,26.56
2019-01-16T19:31:27.508Z,26.47
2019-01-16T19:33:56.396Z,26.40
2019-01-16T19:36:40.124Z,26.25
2019-01-16T19:39:06.478Z,26.10
2019-01-16T19:41:41.841Z,26.06
2019-01-16T19:44:16.856Z,26.03
2019-01-16T19:46:55.324Z,26.03
2019-01-16T19:49:29.313Z,26.00
2019-01-16T19:52:19.041Z,26.00
2019-01-16T19:54:50.321Z,25.96
2019-01-16T19:57:10.919Z,25.92
2019-01-16T19:59:37.038Z,25.84
2019-01-16T20:02:09.882Z,25.79
2019-01-16T20:04:37.460Z,25.74
2019-01-16T20:07:15.478Z,25.77
2019-01-16T20:10:01.911Z,25.73
2019-01-16T20:12:43.151Z,25.74
2019-01-16T20:15:22.083Z,25.63
2019-01-16T20:17:57.056Z,25.49
2019-01-16T20:20:27.307Z,25.42
2019-01-16T20:22:55.371Z,25.34
2019-01-16T20:25:29.319Z,25.30
2019-01-16T20:27:56.244Z,25.24
2019-01-16T20:30:25.652Z,25.17
2019-01-16T20:32:52.626Z,25.20
2019-01-16T20:35:17.216Z,25.37
2019-01-16T20:37:43.558Z,25.52
2019-01-16T20:40:29.925Z,25.56
2019-01-16T20:43:04.947Z,25.72
2019-01-16T20:45:44.276Z,25.89
2019-01-16T20:48:40.437Z,25.94
2019-01-16T20:51:17.394Z,25.85
2019-01-16T20:53:48.461Z,25.77
2019-01-16T20:56:25.267Z,25.68
2019-01-16T20:59:00.608Z,25.58
2019-01-16T21:01:35.903Z,25.49
2019-01-16T21:04:06.582Z,25.37
2019-01-16T21:07:00.446Z,25.31
2019-01-16T21:09:49.778Z,25.31
2019-01-16T21:12:23.234Z,25.21
2019-01-16T21:15:01.982Z,25.12
2019-01-16T21:17:40.232Z,25.09
2019-01-16T21:20:27.756Z,25.07
2019-01-16T21:23:07.925Z,24.94
2019-01-16T21:25:54.729Z,24.90
2019-01-16T21:28:20.213Z,24.88
2019-01-16T21:31:00.866Z,24.84
2019-01-16T21:33:50.993Z,24.91
2019-01-16T21:36:32.820Z,24.97
2019-01-16T21:38:59.893Z,25.19
2019-01-16T21:41:20.668Z,25.29
2019-01-16T21:43:46.719Z,25.42
2019-01-16T21:46:11.476Z,25.52
2019-01-16T21:48:49.594Z,25.63
2019-01-16T21:51:13.971Z,25.69
2019-01-16T21:53:43.593Z,25.78
2019-01-16T21:56:18.192Z,25.69
2019-01-16T21:58:44.536Z,25.70
2019-01-16T22:01:27.569Z,25.59
2019-01-16T22:04:15.250Z,25.55
2019-01-16T22:09:22.423Z,25.37
2019-01-16T22:12:03.503Z,25.23
2019-01-16T22:14:20.180Z,25.17
2019-01-16T22:16:42.802Z,25.08
2019-01-16T22:22:02.842Z,25.04
2019-01-16T22:24:40.415Z,25.00
2019-01-16T22:27:08.112Z,24.95
2019-01-16T22:32:59.970Z,24.86
2019-01-16T22:35:30.244Z,24.97
2019-01-16T22:37:51.202Z,24.86
2019-01-16T22:40:19.069Z,24.86
2019-01-16T22:42:50.513Z,24.78
2019-01-16T22:45:15.487Z,24.81
2019-01-16T22:47:42.169Z,24.83
2019-01-16T22:50:18.209Z,24.83
2019-01-16T22:52:58.300Z,24.82
2019-01-16T22:55:26.235Z,24.75
2019-01-16T22:57:57.165Z,24.74
2019-01-16T23:00:35.567Z,24.71
2019-01-16T23:03:16.335Z,24.66
2019-01-16T23:05:54.385Z,24.63
2019-01-16T23:08:20.496Z,24.63
2019-01-16T23:11:05.075Z,24.63
2019-01-16T23:13:34.152Z,24.63
2019-01-16T23:16:19.881Z,24.65
2019-01-16T23:19:01.113Z,24.63
2019-01-16T23:21:36.133Z,24.65
2019-01-16T23:24:28.798Z,24.68
2019-01-16T23:27:01.196Z,24.89
2019-01-16T23:29:50.147Z,25.15
2019-01-16T23:32:25.576Z,25.26
2019-01-16T23:34:54.823Z,25.47
2019-01-16T23:37:12.601Z,25.58
2019-01-16T23:39:53.201Z,25.53
2019-01-16T23:42:29.010Z,25.70
2019-01-16T23:45:12.414Z,25.91
2019-01-16T23:47:37.851Z,25.86
2019-01-16T23:50:36.304Z,25.77
2019-01-16T23:53:26.730Z,25.67
2019-01-16T23:56:02.098Z,25.55
2019-01-16T23:58:34.333Z,25.41
